createdAt,value
2023-04-27T00:01:51.789Z,10.43
2023-04-27T00:04:22.083Z,10.95
2023-04-27T00:06:52.504Z,10.07
2023-04-27T00:09:22.708Z,10.20
2023-04-27T00:11:52.673Z,8.10
2023-04-27T00:14:28.708Z,14.50
2023-04-27T00:16:58.807Z,9.20
2023-04-27T00:19:30.668Z,8.05
2023-04-27T00:22:00.748Z,9.05
2023-04-27T00:24:30.717Z,8.23
2023-04-27T00:27:00.651Z,8.48
2023-04-27T00:29:33.206Z,9.82
2023-04-27T00:32:03.165Z,9.70
2023-04-27T00:34:33.182Z,6.78
2023-04-27T00:37:03.136Z,8.65
2023-04-27T00:39:33.378Z,8.07
2023-04-27T00:42:03.614Z,9.90
2023-04-27T00:44:37.153Z,10.43
2023-04-27T00:47:09.050Z,9.38
2023-04-27T00:49:39.046Z,11.52
2023-04-27T00:52:09.491Z,8.68
2023-04-27T00:54:39.505Z,7.53
2023-04-27T00:57:09.559Z,7.03
2023-04-27T00:59:42.107Z,9.48
2023-04-27T01:02:13.911Z,9.85
2023-04-27T01:04:44.699Z,10.35
2023-04-27T01:07:14.743Z,7.60
2023-04-27T01:09:44.853Z,7.85
2023-04-27T01:12:14.812Z,9.07
2023-04-27T01:14:47.385Z,11.02
2023-04-27T01:17:18.395Z,7.38
2023-04-27T01:19:48.386Z,6.90
2023-04-27T01:22:18.388Z,10.88
2023-04-27T01:24:51.075Z,6.38
2023-04-27T01:27:21.105Z,9.60
2023-04-27T01:29:51.352Z,8.10
2023-04-27T01:32:21.367Z,9.63
2023-04-27T01:34:51.769Z,8.73
2023-04-27T01:37:21.729Z,8.68
2023-04-27T01:39:54.293Z,7.60
2023-04-27T01:42:24.243Z,8.75
2023-04-27T01:44:54.871Z,6.82
2023-04-27T01:47:24.922Z,6.70
2023-04-27T01:49:54.912Z,12.20
2023-04-27T01:52:24.912Z,9.98
2023-04-27T01:54:57.431Z,9.23
2023-04-27T01:57:27.499Z,10.05
2023-04-27T01:59:57.462Z,6.20
2023-04-27T02:02:27.718Z,10.38
2023-04-27T02:04:57.790Z,9.27
2023-04-27T02:07:27.767Z,11.95
2023-04-27T02:10:00.323Z,6.90
2023-04-27T02:12:30.294Z,9.18
2023-04-27T02:15:00.267Z,7.95
2023-04-27T02:17:31.402Z,10.57
2023-04-27T02:20:01.502Z,9.77
2023-04-27T02:22:31.513Z,8.90
2023-04-27T02:25:04.056Z,6.00
2023-04-27T02:27:34.041Z,8.10
2023-04-27T02:30:08.597Z,8.35
2023-04-27T02:32:39.111Z,8.43
2023-04-27T02:35:11.160Z,10.93
2023-04-27T02:37:41.124Z,11.82
2023-04-27T02:40:15.068Z,9.90
2023-04-27T02:42:45.069Z,9.33
2023-04-27T02:45:15.337Z,8.27
2023-04-27T02:47:45.318Z,6.20
2023-04-27T02:50:15.511Z,6.55
2023-04-27T02:52:45.547Z,9.85
2023-04-27T02:55:18.299Z,8.88
2023-04-27T02:57:48.731Z,10.15
2023-04-27T03:00:20.000Z,10.10
2023-04-27T03:02:50.096Z,10.10
2023-04-27T03:05:20.589Z,11.32
2023-04-27T03:07:50.598Z,10.02
2023-04-27T03:10:23.395Z,10.07
2023-04-27T03:12:53.402Z,9.60
2023-04-27T03:15:23.398Z,11.70
2023-04-27T03:17:53.464Z,12.23
2023-04-27T03:20:25.486Z,8.95
2023-04-27T03:22:55.453Z,8.15
2023-04-27T03:25:28.025Z,9.85
2023-04-27T03:27:57.982Z,13.73
2023-04-27T03:30:27.953Z,11.10
2023-04-27T03:32:58.031Z,9.20
2023-04-27T03:35:28.385Z,7.22
2023-04-27T03:37:58.347Z,9.52
2023-04-27T03:40:31.002Z,10.90
2023-04-27T03:43:01.138Z,9.40
2023-04-27T03:45:31.341Z,12.52
2023-04-27T03:48:01.430Z,8.70
2023-04-27T03:50:31.486Z,9.90
2023-04-27T03:53:01.535Z,9.15
2023-04-27T03:55:34.673Z,8.77
2023-04-27T03:58:04.620Z,14.18
2023-04-27T04:00:34.650Z,8.02
2023-04-27T04:03:04.805Z,10.50
2023-04-27T04:05:35.131Z,10.10
2023-04-27T04:08:05.219Z,14.27
2023-04-27T04:10:37.785Z,8.93
2023-04-27T04:13:07.748Z,10.73
2023-04-27T04:15:37.751Z,9.65
2023-04-27T04:18:08.150Z,9.80
2023-04-27T04:20:38.725Z,8.95
2023-04-27T04:23:08.686Z,11.35
2023-04-27T04:25:41.804Z,10.82
2023-04-27T04:28:11.794Z,12.60
2023-04-27T04:30:41.796Z,13.98
2023-04-27T04:33:12.327Z,10.95
2023-04-27T04:35:42.417Z,13.85
2023-04-27T04:38:12.424Z,11.90
2023-04-27T04:40:46.001Z,10.05
2023-04-27T04:43:16.281Z,11.52
2023-04-27T04:45:46.946Z,8.90
2023-04-27T04:48:17.873Z,11.88
2023-04-27T04:50:47.823Z,11.40
2023-04-27T04:53:17.762Z,10.80
2023-04-27T04:55:50.321Z,10.05
2023-04-27T04:58:20.301Z,10.98
2023-04-27T05:00:50.264Z,9.52
2023-04-27T05:03:20.347Z,8.02
2023-04-27T05:05:51.500Z,8.68
2023-04-27T05:08:21.488Z,12.65
2023-04-27T05:10:56.366Z,8.52
2023-04-27T05:13:28.068Z,10.93
2023-04-27T05:15:58.199Z,9.73
2023-04-27T05:18:28.265Z,12.25
2023-04-27T05:20:58.220Z,9.52
2023-04-27T05:23:28.248Z,14.20
2023-04-27T05:26:00.814Z,12.23
2023-04-27T05:28:30.840Z,10.93
2023-04-27T05:31:00.789Z,10.13
2023-04-27T05:33:30.779Z,11.95
2023-04-27T05:36:00.777Z,10.40
2023-04-27T05:38:30.902Z,10.27
2023-04-27T05:41:03.773Z,9.45
2023-04-27T05:43:35.201Z,11.15
2023-04-27T05:46:05.202Z,9.48
2023-04-27T05:48:35.235Z,10.15
2023-04-27T05:51:06.608Z,10.65
2023-04-27T05:53:37.589Z,8.05
2023-04-27T05:56:11.870Z,12.23
2023-04-27T05:58:42.298Z,8.50
2023-04-27T06:01:12.834Z,9.48
2023-04-27T06:03:43.149Z,10.43
2023-04-27T06:06:13.316Z,10.88
2023-04-27T06:08:43.282Z,7.53
2023-04-27T06:11:16.527Z,9.90
2023-04-27T06:13:46.506Z,10.60
2023-04-27T06:16:16.507Z,9.65
2023-04-27T06:18:46.567Z,8.35
2023-04-27T06:21:16.586Z,11.82
2023-04-27T06:23:46.556Z,12.48
2023-04-27T06:26:19.146Z,14.40
2023-04-27T06:28:49.569Z,10.15
2023-04-27T06:31:20.027Z,8.77
2023-04-27T06:33:50.091Z,9.63
2023-04-27T06:36:21.014Z,9.18
2023-04-27T06:38:51.040Z,10.75
2023-04-27T06:41:23.575Z,12.02
2023-04-27T06:43:54.222Z,8.40
2023-04-27T06:46:24.254Z,13.45
2023-04-27T06:48:54.363Z,12.10
2023-04-27T06:51:24.334Z,9.10
2023-04-27T06:53:54.337Z,12.23
2023-04-27T06:56:26.870Z,7.70
2023-04-27T06:58:56.973Z,9.93
2023-04-27T07:01:27.040Z,11.25
2023-04-27T07:03:57.608Z,6.57
2023-04-27T07:06:28.958Z,10.57
2023-04-27T07:08:59.033Z,8.27
2023-04-27T07:11:31.602Z,8.27
2023-04-27T07:14:01.600Z,9.95
2023-04-27T07:16:31.818Z,6.70
2023-04-27T07:19:01.920Z,6.03
2023-04-27T07:21:31.893Z,7.22
2023-04-27T07:24:01.857Z,7.18
2023-04-27T07:26:35.185Z,7.40
2023-04-27T07:29:14.408Z,6.72
2023-04-27T07:31:50.648Z,7.18
2023-04-27T07:34:22.076Z,5.50
2023-04-27T07:36:54.369Z,11.95
2023-04-27T07:39:24.584Z,8.57
2023-04-27T07:41:58.424Z,8.73
2023-04-27T07:44:30.078Z,7.38
2023-04-27T07:47:00.038Z,7.45
2023-04-27T07:49:30.678Z,12.27
2023-04-27T07:52:00.704Z,10.43
2023-04-27T07:54:30.847Z,6.47
2023-04-27T07:57:04.122Z,8.07
2023-04-27T07:59:34.238Z,9.15
2023-04-27T08:02:18.514Z,9.00
2023-04-27T08:04:50.350Z,11.55
2023-04-27T08:07:21.575Z,9.40
2023-04-27T08:09:54.167Z,7.78
2023-04-27T08:12:26.736Z,7.43
2023-04-27T08:14:56.933Z,8.80
2023-04-27T08:17:26.951Z,9.25
2023-04-27T08:19:56.984Z,7.78
2023-04-27T08:22:26.934Z,8.63
2023-04-27T08:24:56.901Z,8.32
2023-04-27T08:27:29.454Z,7.85
2023-04-27T08:30:01.101Z,11.00
2023-04-27T08:32:31.403Z,7.93
2023-04-27T08:35:01.450Z,11.35
2023-04-27T08:37:31.471Z,5.63
2023-04-27T08:40:01.421Z,8.05
2023-04-27T08:42:34.377Z,9.43
2023-04-27T08:45:04.661Z,5.75
2023-04-27T08:47:42.500Z,7.93
2023-04-27T08:50:15.252Z,7.10
2023-04-27T08:52:47.820Z,6.15
2023-04-27T08:55:18.074Z,7.78
2023-04-27T08:58:01.590Z,6.45
2023-04-27T09:00:42.464Z,6.07
2023-04-27T09:03:22.906Z,7.55
2023-04-27T09:06:04.406Z,6.28
2023-04-27T09:08:47.161Z,6.90
2023-04-27T09:11:17.866Z,7.03
2023-04-27T09:13:50.498Z,9.88
2023-04-27T09:16:28.466Z,8.10
2023-04-27T09:18:59.763Z,6.63
2023-04-27T09:21:33.059Z,8.40
2023-04-27T09:24:13.792Z,9.20
2023-04-27T09:26:44.617Z,7.57
2023-04-27T09:29:17.562Z,5.80
2023-04-27T09:31:47.622Z,7.85
2023-04-27T09:34:17.581Z,8.43
2023-04-27T09:36:48.998Z,7.22
2023-04-27T09:39:20.340Z,10.02
2023-04-27T09:41:51.769Z,8.48
2023-04-27T09:44:24.409Z,10.15
2023-04-27T09:46:55.955Z,7.20
2023-04-27T09:49:29.320Z,8.70
2023-04-27T09:52:00.133Z,9.13
2023-04-27T09:54:34.970Z,7.70
2023-04-27T09:57:20.735Z,9.30
2023-04-27T10:00:08.225Z,7.90
2023-04-27T10:02:53.643Z,6.57
2023-04-27T10:05:45.852Z,8.02
2023-04-27T10:08:16.236Z,9.55
2023-04-27T10:10:50.640Z,11.35
2023-04-27T10:13:26.400Z,7.93
2023-04-27T10:15:58.989Z,7.43
2023-04-27T10:18:31.642Z,5.82
2023-04-27T10:21:13.513Z,6.70
2023-04-27T10:23:51.207Z,9.02
2023-04-27T10:26:27.640Z,6.53
2023-04-27T10:29:03.203Z,7.60
2023-04-27T10:31:36.305Z,7.95
2023-04-27T10:34:11.293Z,8.38
2023-04-27T10:36:42.925Z,6.35
2023-04-27T10:39:36.028Z,6.88
2023-04-27T10:42:14.374Z,7.60
2023-04-27T10:44:44.356Z,6.60
2023-04-27T10:47:22.276Z,6.82
2023-04-27T10:49:55.925Z,6.40
2023-04-27T10:52:25.922Z,6.18
2023-04-27T10:54:55.925Z,12.15
2023-04-27T10:57:26.900Z,8.75
2023-04-27T10:59:57.567Z,8.02
2023-04-27T11:02:33.271Z,9.02
2023-04-27T11:05:07.662Z,10.38
2023-04-27T11:07:38.399Z,6.63
2023-04-27T11:10:11.972Z,7.75
2023-04-27T11:12:42.413Z,4.75
2023-04-27T11:15:14.327Z,8.45
2023-04-27T11:17:47.070Z,6.97
2023-04-27T11:20:22.582Z,6.55
2023-04-27T11:22:52.528Z,4.47
2023-04-27T11:25:30.846Z,5.43
2023-04-27T11:28:00.848Z,4.65
2023-04-27T11:30:31.746Z,6.13
2023-04-27T11:33:12.579Z,8.93
2023-04-27T11:35:42.799Z,4.82
2023-04-27T11:38:20.337Z,9.27
2023-04-27T11:40:51.149Z,7.22
2023-04-27T11:43:21.092Z,6.85
2023-04-27T11:45:51.846Z,4.93
2023-04-27T11:48:26.605Z,6.07
2023-04-27T11:50:56.585Z,8.02
2023-04-27T11:53:33.990Z,6.53
2023-04-27T11:56:05.695Z,5.20
2023-04-27T11:58:37.443Z,6.10
2023-04-27T12:01:08.126Z,7.00
2023-04-27T12:03:40.874Z,6.10
2023-04-27T12:06:31.452Z,4.05
2023-04-27T12:09:02.294Z,4.40
2023-04-27T12:11:32.357Z,6.72
2023-04-27T12:14:02.326Z,5.28
2023-04-27T12:16:32.620Z,5.90
2023-04-27T12:19:05.196Z,6.55
2023-04-27T12:21:35.336Z,4.53
2023-04-27T12:24:05.258Z,4.95
2023-04-27T12:26:35.625Z,5.55
2023-04-27T12:29:05.624Z,10.23
2023-04-27T12:31:35.749Z,6.20
2023-04-27T12:34:08.400Z,5.50
2023-04-27T12:36:38.568Z,5.45
2023-04-27T12:39:18.618Z,7.82
2023-04-27T12:41:49.807Z,4.32
2023-04-27T12:44:21.644Z,6.20
2023-04-27T12:46:52.521Z,4.47
2023-04-27T12:49:25.231Z,5.85
2023-04-27T12:51:57.366Z,6.18
2023-04-27T12:54:27.302Z,7.18
2023-04-27T12:56:57.297Z,5.80
2023-04-27T12:59:27.269Z,7.05
2023-04-27T13:01:57.294Z,7.43
2023-04-27T13:04:31.144Z,7.35
2023-04-27T13:07:03.459Z,3.43
2023-04-27T13:09:33.493Z,8.32
2023-04-27T13:12:03.486Z,7.72
2023-04-27T13:14:34.508Z,7.88
2023-04-27T13:17:04.908Z,3.97
2023-04-27T13:19:37.438Z,6.22
2023-04-27T13:22:09.927Z,6.93
2023-04-27T13:24:39.970Z,5.50
2023-04-27T13:27:09.958Z,6.03
2023-04-27T13:29:39.907Z,9.05
2023-04-27T13:32:09.987Z,4.50
2023-04-27T13:34:43.075Z,7.53
2023-04-27T13:37:13.052Z,6.07
2023-04-27T13:39:43.031Z,6.88
2023-04-27T13:42:13.059Z,7.80
2023-04-27T13:44:43.033Z,5.65
2023-04-27T13:47:13.075Z,6.50
2023-04-27T13:49:45.653Z,5.40
2023-04-27T13:52:15.662Z,6.78
2023-04-27T13:54:45.789Z,6.43
2023-04-27T13:57:15.827Z,7.18
2023-04-27T13:59:45.941Z,4.72
2023-04-27T14:02:16.214Z,5.97
2023-04-27T14:04:48.844Z,5.95
2023-04-27T14:07:18.967Z,6.47
2023-04-27T14:09:49.085Z,4.60
2023-04-27T14:12:19.366Z,4.47
2023-04-27T14:14:49.321Z,6.35
2023-04-27T14:17:19.363Z,6.93
2023-04-27T14:19:51.900Z,6.43
2023-04-27T14:22:21.954Z,5.70
2023-04-27T14:24:52.180Z,6.82
2023-04-27T14:27:22.160Z,7.85
2023-04-27T14:29:52.134Z,5.60
2023-04-27T14:32:22.697Z,5.07
2023-04-27T14:34:55.259Z,6.20
2023-04-27T14:37:25.304Z,7.40
2023-04-27T14:39:55.250Z,8.95
2023-04-27T14:42:25.865Z,3.17
2023-04-27T14:44:55.963Z,8.18
2023-04-27T14:47:26.100Z,4.60
2023-04-27T14:49:58.837Z,12.23
2023-04-27T14:52:29.064Z,7.13
2023-04-27T14:54:59.466Z,6.10
2023-04-27T14:57:29.548Z,6.20
2023-04-27T14:59:59.791Z,4.25
2023-04-27T15:02:31.235Z,6.07
2023-04-27T15:05:06.493Z,8.10
2023-04-27T15:07:36.534Z,6.15
2023-04-27T15:10:07.194Z,6.13
2023-04-27T15:12:37.197Z,4.95
2023-04-27T15:15:10.470Z,4.82
2023-04-27T15:17:40.832Z,6.72
2023-04-27T15:20:14.971Z,4.03
2023-04-27T15:22:44.931Z,4.75
2023-04-27T15:25:14.974Z,4.82
2023-04-27T15:27:45.069Z,4.38
2023-04-27T15:30:16.925Z,11.95
2023-04-27T15:32:47.027Z,56.45
2023-04-27T15:35:21.044Z,10.27
2023-04-27T15:37:51.736Z,7.95
2023-04-27T15:40:21.947Z,16.52
2023-04-27T15:42:51.966Z,9.68
2023-04-27T15:45:22.240Z,5.40
2023-04-27T15:47:52.421Z,4.05
2023-04-27T15:50:25.489Z,4.07
2023-04-27T15:52:56.250Z,5.57
2023-04-27T15:55:26.557Z,7.22
2023-04-27T15:57:56.851Z,4.72
2023-04-27T16:00:26.972Z,6.68
2023-04-27T16:02:57.046Z,10.45
2023-04-27T16:05:30.129Z,12.23
2023-04-27T16:08:00.165Z,6.45
2023-04-27T16:10:30.580Z,6.60
2023-04-27T16:13:00.604Z,7.43
2023-04-27T16:15:30.722Z,4.82
2023-04-27T16:18:00.824Z,8.90
2023-04-27T16:20:35.798Z,6.82
2023-04-27T16:23:06.738Z,7.38
2023-04-27T16:25:36.738Z,3.30
2023-04-27T16:28:06.766Z,6.32
2023-04-27T16:30:36.721Z,4.05
2023-04-27T16:33:06.905Z,6.50
2023-04-27T16:35:39.586Z,7.28
2023-04-27T16:38:09.634Z,2.55
2023-04-27T16:40:39.630Z,5.43
2023-04-27T16:43:09.655Z,2.83
2023-04-27T16:45:41.908Z,6.97
2023-04-27T16:48:12.894Z,6.38
2023-04-27T16:50:45.521Z,2.85
2023-04-27T16:53:20.455Z,5.88
2023-04-27T16:55:50.864Z,7.72
2023-04-27T16:58:20.926Z,5.05
2023-04-27T17:00:51.272Z,5.15
2023-04-27T17:03:21.412Z,7.95
2023-04-27T17:05:54.240Z,6.63
2023-04-27T17:08:24.287Z,4.85
2023-04-27T17:10:54.288Z,4.57
2023-04-27T17:13:24.228Z,3.60
2023-04-27T17:15:54.427Z,6.10
2023-04-27T17:18:24.445Z,5.60
2023-04-27T17:20:57.077Z,7.43
2023-04-27T17:23:27.126Z,4.47
2023-04-27T17:25:57.222Z,6.38
2023-04-27T17:28:27.262Z,8.88
2023-04-27T17:30:57.749Z,14.18
2023-04-27T17:33:27.716Z,16.02
2023-04-27T17:36:00.240Z,10.02
2023-04-27T17:38:30.372Z,8.15
2023-04-27T17:41:00.354Z,4.38
2023-04-27T17:43:30.462Z,8.80
2023-04-27T17:46:00.406Z,9.00
2023-04-27T17:48:30.429Z,7.25
2023-04-27T17:51:03.002Z,8.95
2023-04-27T17:53:32.988Z,7.88
2023-04-27T17:56:03.935Z,9.82
2023-04-27T17:58:33.980Z,8.98
2023-04-27T18:01:04.812Z,5.80
2023-04-27T18:03:34.939Z,5.18
2023-04-27T18:06:08.239Z,10.60
2023-04-27T18:08:38.229Z,10.77
2023-04-27T18:11:08.302Z,8.32
2023-04-27T18:13:38.399Z,7.07
2023-04-27T18:16:09.240Z,6.75
2023-04-27T18:18:39.241Z,9.13
2023-04-27T18:21:11.882Z,7.03
2023-04-27T18:23:42.856Z,8.02
2023-04-27T18:26:13.339Z,9.18
2023-04-27T18:28:43.311Z,11.10
2023-04-27T18:31:20.390Z,13.50
2023-04-27T18:33:50.414Z,11.23
2023-04-27T18:36:23.031Z,12.57
2023-04-27T18:38:53.313Z,12.10
2023-04-27T18:41:23.895Z,10.40
2023-04-27T18:43:54.269Z,13.90
2023-04-27T18:46:24.299Z,11.07
2023-04-27T18:48:54.296Z,10.07
2023-04-27T18:51:27.048Z,11.63
2023-04-27T18:53:57.075Z,12.05
2023-04-27T18:56:27.632Z,13.02
2023-04-27T18:58:58.003Z,11.00
2023-04-27T19:01:30.864Z,11.25
2023-04-27T19:04:01.466Z,16.67
2023-04-27T19:06:34.257Z,13.00
2023-04-27T19:09:04.219Z,12.50
2023-04-27T19:11:34.178Z,14.88
2023-04-27T19:14:04.248Z,15.05
2023-04-27T19:16:34.278Z,16.40
2023-04-27T19:19:04.418Z,14.73
2023-04-27T19:21:39.152Z,15.30
2023-04-27T19:24:09.620Z,18.13
2023-04-27T19:26:39.839Z,14.40
2023-04-27T19:29:09.934Z,14.60
2023-04-27T19:31:39.965Z,13.32
2023-04-27T19:34:10.034Z,13.70
2023-04-27T19:36:42.634Z,15.60
2023-04-27T19:39:13.729Z,13.52
2023-04-27T19:41:44.485Z,17.27
2023-04-27T19:44:14.669Z,18.10
2023-04-27T19:46:44.876Z,29.67
2023-04-27T19:49:15.967Z,41.15
2023-04-27T19:51:49.217Z,29.17
2023-04-27T19:54:19.548Z,35.80
2023-04-27T19:56:49.523Z,36.03
2023-04-27T19:59:19.502Z,33.08
2023-04-27T20:01:49.606Z,34.33
2023-04-27T20:04:21.183Z,39.80
2023-04-27T20:06:54.240Z,35.63
2023-04-27T20:09:24.188Z,32.92
2023-04-27T20:11:55.137Z,23.20
2023-04-27T20:14:25.146Z,29.55
2023-04-27T20:16:55.456Z,28.48
2023-04-27T20:19:25.640Z,30.23
2023-04-27T20:21:58.911Z,33.00
2023-04-27T20:24:29.492Z,29.67
2023-04-27T20:26:59.439Z,30.65
2023-04-27T20:29:29.389Z,29.33
2023-04-27T20:31:59.375Z,32.35
2023-04-27T20:34:29.429Z,31.27
2023-04-27T20:37:02.009Z,31.88
2023-04-27T20:39:32.430Z,29.02
2023-04-27T20:42:02.393Z,28.48
2023-04-27T20:44:32.478Z,31.25
2023-04-27T20:47:02.481Z,23.35
2023-04-27T20:49:35.353Z,21.85
2023-04-27T20:52:08.320Z,21.50
2023-04-27T20:54:38.320Z,18.05
2023-04-27T20:57:13.597Z,21.95
2023-04-27T20:59:43.757Z,18.70
2023-04-27T21:02:13.761Z,17.83
2023-04-27T21:04:43.925Z,14.20
2023-04-27T21:07:16.581Z,16.05
2023-04-27T21:09:46.585Z,16.30
2023-04-27T21:12:17.893Z,15.30
2023-04-27T21:14:48.160Z,20.92
2023-04-27T21:17:18.247Z,17.27
2023-04-27T21:19:48.226Z,15.43
2023-04-27T21:22:20.813Z,17.08
2023-04-27T21:24:50.847Z,15.52
2023-04-27T21:27:20.809Z,16.92
2023-04-27T21:29:50.769Z,17.15
2023-04-27T21:32:20.872Z,23.67
2023-04-27T21:34:51.842Z,21.67
2023-04-27T21:37:24.421Z,25.10
2023-04-27T21:39:54.389Z,29.08
2023-04-27T21:42:24.397Z,26.65
2023-04-27T21:44:56.229Z,29.20
2023-04-27T21:47:26.764Z,26.70
2023-04-27T21:49:56.852Z,28.45
2023-04-27T21:52:29.453Z,26.77
2023-04-27T21:54:59.411Z,33.83
2023-04-27T21:57:29.930Z,26.80
2023-04-27T21:59:59.902Z,24.33
2023-04-27T22:02:30.924Z,29.52
2023-04-27T22:05:02.728Z,29.25
2023-04-27T22:07:35.415Z,30.42
2023-04-27T22:10:05.925Z,25.20
2023-04-27T22:12:36.252Z,25.02
2023-04-27T22:15:06.746Z,23.08
2023-04-27T22:17:39.770Z,21.52
2023-04-27T22:20:14.492Z,22.35
2023-04-27T22:22:47.241Z,21.75
2023-04-27T22:25:17.384Z,21.58
2023-04-27T22:27:47.334Z,22.05
2023-04-27T22:30:18.227Z,22.17
2023-04-27T22:32:48.301Z,20.48
2023-04-27T22:35:26.410Z,19.58
2023-04-27T22:38:01.274Z,17.63
2023-04-27T22:40:31.378Z,17.23
2023-04-27T22:43:01.362Z,19.08
2023-04-27T22:45:32.092Z,20.17
2023-04-27T22:48:02.105Z,17.10
2023-04-27T22:50:32.422Z,19.08
2023-04-27T22:53:05.010Z,19.63
2023-04-27T22:55:37.666Z,20.88
2023-04-27T22:58:07.664Z,18.52
2023-04-27T23:00:37.676Z,15.40
2023-04-27T23:03:07.909Z,19.60
2023-04-27T23:05:37.994Z,22.10
2023-04-27T23:08:10.591Z,23.77
2023-04-27T23:10:40.845Z,20.10
2023-04-27T23:13:11.474Z,20.38
2023-04-27T23:15:41.927Z,19.60
2023-04-27T23:18:11.965Z,20.75
2023-04-27T23:20:42.016Z,22.02
2023-04-27T23:23:14.558Z,24.02
2023-04-27T23:25:44.516Z,21.25
2023-04-27T23:28:14.490Z,21.27
2023-04-27T23:30:44.462Z,21.92
2023-04-27T23:33:14.526Z,21.35
2023-04-27T23:35:44.464Z,21.55
2023-04-27T23:38:17.056Z,22.58
2023-04-27T23:40:47.148Z,23.00
2023-04-27T23:43:17.160Z,22.90
2023-04-27T23:45:52.837Z,23.55
2023-04-27T23:48:23.041Z,22.77
2023-04-27T23:51:01.632Z,17.73
2023-04-27T23:53:34.289Z,17.05
2023-04-27T23:56:04.224Z,16.88
2023-04-27T23:58:34.172Z,20.60
